createdAt,value
2018-12-21T00:00:01.062Z,66.40
2018-12-21T00:02:28.547Z,66.70
2018-12-21T00:04:56.076Z,65.30
2018-12-21T00:07:23.718Z,65.30
2018-12-21T00:09:51.359Z,66.10
2018-12-21T00:12:18.840Z,66.40
2018-12-21T00:14:46.330Z,66.50
2018-12-21T00:17:13.827Z,66.30
2018-12-21T00:19:41.314Z,65.10
2018-12-21T00:22:08.774Z,64.80
2018-12-21T00:24:36.301Z,64.40
2018-12-21T00:27:03.888Z,66.20
2018-12-21T00:29:31.665Z,67.00
2018-12-21T00:32:04.755Z,66.20
2018-12-21T00:34:37.908Z,65.00
2018-12-21T00:37:11.135Z,65.00
2018-12-21T00:39:44.357Z,66.10
2018-12-21T00:42:13.830Z,66.30
2018-12-21T00:44:41.330Z,66.30
2018-12-21T00:47:10.829Z,66.20
2018-12-21T00:49:38.323Z,66.20
2018-12-21T00:52:05.977Z,66.20
2018-12-21T00:54:33.478Z,66.00
2018-12-21T00:57:00.992Z,65.80
2018-12-21T00:59:28.484Z,65.90
2018-12-21T01:01:55.970Z,64.70
2018-12-21T01:04:23.510Z,64.70
2018-12-21T01:06:51.067Z,64.80
2018-12-21T01:09:18.734Z,64.70
2018-12-21T01:11:46.285Z,64.50
2018-12-21T01:14:13.878Z,64.60
2018-12-21T01:16:41.432Z,64.40
2018-12-21T01:19:08.900Z,64.20
2018-12-21T01:21:38.829Z,64.20
2018-12-21T01:24:06.008Z,64.40
2018-12-21T01:26:33.494Z,64.40
2018-12-21T01:29:01.009Z,64.70
2018-12-21T01:31:28.501Z,64.10
2018-12-21T01:33:55.954Z,64.30
2018-12-21T01:36:23.440Z,64.20
2018-12-21T01:38:50.898Z,64.10
2018-12-21T01:41:18.391Z,64.00
2018-12-21T01:43:45.920Z,64.20
2018-12-21T01:46:13.497Z,64.40
2018-12-21T01:48:40.993Z,64.30
2018-12-21T01:51:08.470Z,64.20
2018-12-21T01:53:35.983Z,64.20
2018-12-21T01:56:03.547Z,64.30
2018-12-21T01:58:31.006Z,64.30
2018-12-21T02:00:58.574Z,64.10
2018-12-21T02:03:26.038Z,64.10
2018-12-21T02:05:53.547Z,64.40
2018-12-21T02:08:21.015Z,64.00
2018-12-21T02:10:48.523Z,64.10
2018-12-21T02:13:15.995Z,63.80
2018-12-21T02:15:43.532Z,63.70
2018-12-21T02:18:11.028Z,63.60
2018-12-21T02:20:38.980Z,63.60
2018-12-21T02:23:06.477Z,63.60
2018-12-21T02:25:33.976Z,63.50
2018-12-21T02:28:01.562Z,63.50
2018-12-21T02:30:29.126Z,63.70
2018-12-21T02:32:56.606Z,63.60
2018-12-21T02:35:24.067Z,63.90
2018-12-21T02:37:51.561Z,63.70
2018-12-21T02:40:19.079Z,64.10
2018-12-21T02:42:46.581Z,65.60
2018-12-21T02:45:14.027Z,65.50
2018-12-21T02:47:41.586Z,64.50
2018-12-21T02:50:09.067Z,64.20
2018-12-21T02:52:36.875Z,64.30
2018-12-21T02:55:04.663Z,64.30
2018-12-21T02:57:32.163Z,64.40
2018-12-21T02:59:59.627Z,64.20
2018-12-21T03:02:27.154Z,64.00
2018-12-21T03:04:54.607Z,64.20
2018-12-21T03:07:22.086Z,63.80
2018-12-21T03:09:49.656Z,63.80
2018-12-21T03:12:17.249Z,63.90
2018-12-21T03:14:44.753Z,63.50
2018-12-21T03:17:12.224Z,63.60
2018-12-21T03:19:39.726Z,63.60
2018-12-21T03:22:14.644Z,63.50
2018-12-21T03:24:36.756Z,63.70
2018-12-21T03:27:04.300Z,63.70
2018-12-21T03:29:31.865Z,63.90
2018-12-21T03:31:59.468Z,63.70
2018-12-21T03:34:26.951Z,63.70
2018-12-21T03:36:54.561Z,63.80
2018-12-21T03:39:22.037Z,63.70
2018-12-21T03:41:49.689Z,63.90
2018-12-21T03:44:17.189Z,64.10
2018-12-21T03:46:44.654Z,64.20
2018-12-21T03:49:12.119Z,64.30
2018-12-21T03:51:39.718Z,64.20
2018-12-21T03:54:07.264Z,64.10
2018-12-21T03:56:34.745Z,64.00
2018-12-21T03:59:02.211Z,63.90
2018-12-21T04:01:29.718Z,64.20
2018-12-21T04:03:57.693Z,64.20
2018-12-21T04:06:25.265Z,64.00
2018-12-21T04:08:52.740Z,63.90
2018-12-21T04:11:20.230Z,64.00
2018-12-21T04:13:47.693Z,63.80
2018-12-21T04:16:15.177Z,64.30
2018-12-21T04:18:42.675Z,63.30
2018-12-21T04:21:10.130Z,63.40
2018-12-21T04:23:37.622Z,63.40
2018-12-21T04:26:05.201Z,62.60
2018-12-21T04:28:32.811Z,62.80
2018-12-21T04:31:00.384Z,62.60
2018-12-21T04:33:27.870Z,62.70
2018-12-21T04:35:55.358Z,62.50
2018-12-21T04:38:22.874Z,62.80
2018-12-21T04:40:50.330Z,62.60
2018-12-21T04:43:17.810Z,63.00
2018-12-21T04:45:45.302Z,63.70
2018-12-21T04:48:12.883Z,63.70
2018-12-21T04:50:40.356Z,64.70
2018-12-21T04:53:07.824Z,65.20
2018-12-21T04:55:35.348Z,65.50
2018-12-21T04:58:02.826Z,65.80
2018-12-21T05:00:30.393Z,65.40
2018-12-21T05:02:57.882Z,65.80
2018-12-21T05:05:25.349Z,65.70
2018-12-21T05:07:52.988Z,65.10
2018-12-21T05:10:20.465Z,65.30
2018-12-21T05:12:47.937Z,66.00
2018-12-21T05:15:15.471Z,66.10
2018-12-21T05:17:42.945Z,65.60
2018-12-21T05:20:10.452Z,65.20
2018-12-21T05:22:37.969Z,65.20
2018-12-21T05:25:05.510Z,65.10
2018-12-21T05:27:32.989Z,64.80
2018-12-21T05:30:00.579Z,64.60
2018-12-21T05:32:28.103Z,64.50
2018-12-21T05:34:55.567Z,65.20
2018-12-21T05:37:23.038Z,65.30
2018-12-21T05:39:50.623Z,65.40
2018-12-21T05:42:18.096Z,65.30
2018-12-21T05:44:45.591Z,67.10
2018-12-21T05:47:13.074Z,67.60
2018-12-21T05:49:40.538Z,68.10
2018-12-21T05:52:08.000Z,69.20
2018-12-21T05:54:35.458Z,68.40
2018-12-21T05:57:02.980Z,69.30
2018-12-21T05:59:30.470Z,70.00
2018-12-21T06:01:58.015Z,70.30
2018-12-21T06:04:25.489Z,70.80
2018-12-21T06:06:52.952Z,71.00
2018-12-21T06:09:20.420Z,71.00
2018-12-21T06:11:47.889Z,71.30
2018-12-21T06:14:15.356Z,71.40
2018-12-21T06:16:42.827Z,71.90
2018-12-21T06:19:12.182Z,72.60
2018-12-21T06:21:39.790Z,72.70
2018-12-21T06:24:07.241Z,72.60
2018-12-21T06:26:34.714Z,73.10
2018-12-21T06:29:02.377Z,73.90
2018-12-21T06:31:29.939Z,73.60
2018-12-21T06:33:57.541Z,73.40
2018-12-21T06:36:24.983Z,73.40
2018-12-21T06:38:52.448Z,73.20
2018-12-21T06:41:19.927Z,73.00
2018-12-21T06:43:47.484Z,73.90
2018-12-21T06:46:14.948Z,74.00
2018-12-21T06:48:42.417Z,73.60
2018-12-21T06:51:10.190Z,73.60
2018-12-21T06:53:37.712Z,74.00
2018-12-21T06:56:05.172Z,73.80
2018-12-21T06:58:32.653Z,74.00
2018-12-21T07:01:00.749Z,74.00
2018-12-21T07:03:28.493Z,73.60
2018-12-21T07:05:56.004Z,73.50
2018-12-21T07:08:23.481Z,73.80
2018-12-21T07:10:50.947Z,73.70
2018-12-21T07:13:18.560Z,73.20
2018-12-21T07:15:46.913Z,73.30
2018-12-21T07:18:14.396Z,72.70
2018-12-21T07:20:41.920Z,72.80
2018-12-21T07:23:09.446Z,73.00
2018-12-21T07:25:37.003Z,73.10
2018-12-21T07:28:04.527Z,73.00
2018-12-21T07:30:32.019Z,72.80
2018-12-21T07:32:59.542Z,73.00
2018-12-21T07:35:27.073Z,73.40
2018-12-21T07:37:54.627Z,73.10
2018-12-21T07:40:22.144Z,73.30
2018-12-21T07:42:49.613Z,73.80
2018-12-21T07:45:17.094Z,74.00
2018-12-21T07:47:44.773Z,73.70
2018-12-21T07:50:12.339Z,73.20
2018-12-21T07:52:39.823Z,73.40
2018-12-21T07:55:07.606Z,73.90
2018-12-21T07:57:35.067Z,74.50
2018-12-21T08:00:03.008Z,74.50
2018-12-21T08:02:30.614Z,74.40
2018-12-21T08:04:58.305Z,74.40
2018-12-21T08:07:25.817Z,74.30
2018-12-21T08:09:53.965Z,73.80
2018-12-21T08:12:21.540Z,74.30
2018-12-21T08:14:49.134Z,73.90
2018-12-21T08:17:16.590Z,73.60
2018-12-21T08:19:44.065Z,73.40
2018-12-21T08:22:11.613Z,74.00
2018-12-21T08:24:39.072Z,73.90
2018-12-21T08:27:06.729Z,74.30
2018-12-21T08:29:34.300Z,74.40
2018-12-21T08:32:01.783Z,74.10
2018-12-21T08:34:29.262Z,74.10
2018-12-21T08:36:56.905Z,74.40
2018-12-21T08:39:24.382Z,74.30
2018-12-21T08:41:51.851Z,75.00
2018-12-21T08:44:19.380Z,75.00
2018-12-21T08:46:46.860Z,74.80
2018-12-21T08:49:14.528Z,75.10
2018-12-21T08:51:42.001Z,75.60
2018-12-21T08:54:09.545Z,76.60
2018-12-21T08:56:37.079Z,75.90
2018-12-21T08:59:04.562Z,76.20
2018-12-21T09:01:32.067Z,76.60
2018-12-21T09:03:59.872Z,76.10
2018-12-21T09:06:27.435Z,76.20
2018-12-21T09:08:55.125Z,75.90
2018-12-21T09:11:22.696Z,76.40
2018-12-21T09:13:50.179Z,76.30
2018-12-21T09:16:17.678Z,76.50
2018-12-21T09:18:45.185Z,76.30
2018-12-21T09:21:12.657Z,76.30
2018-12-21T09:23:40.131Z,76.80
2018-12-21T09:26:07.708Z,77.40
2018-12-21T09:28:35.186Z,78.70
2018-12-21T09:31:02.709Z,78.70
2018-12-21T09:33:30.215Z,78.70
2018-12-21T09:35:57.700Z,78.60
2018-12-21T09:38:25.163Z,78.40
2018-12-21T09:40:52.651Z,79.10
2018-12-21T09:43:20.189Z,78.30
2018-12-21T09:45:47.704Z,78.60
2018-12-21T09:48:15.158Z,78.20
2018-12-21T09:50:42.636Z,78.80
2018-12-21T09:53:10.138Z,78.90
2018-12-21T09:55:37.713Z,79.00
2018-12-21T09:58:05.175Z,79.60
2018-12-21T10:00:32.675Z,79.80
2018-12-21T10:03:00.236Z,79.00
2018-12-21T10:05:27.774Z,79.30
2018-12-21T10:07:55.362Z,79.00
2018-12-21T10:10:22.956Z,79.40
2018-12-21T10:12:53.506Z,79.40
2018-12-21T10:15:20.584Z,79.20
2018-12-21T10:17:48.046Z,79.50
2018-12-21T10:20:19.913Z,79.70
2018-12-21T10:22:45.134Z,79.60
2018-12-21T10:25:12.632Z,79.20
2018-12-21T10:27:40.182Z,79.40
2018-12-21T10:30:09.221Z,79.00
2018-12-21T10:32:36.821Z,79.30
2018-12-21T10:35:05.303Z,78.60
2018-12-21T10:37:32.784Z,78.70
2018-12-21T10:40:00.279Z,78.70
2018-12-21T10:42:27.765Z,79.10
2018-12-21T10:44:55.210Z,78.60
2018-12-21T10:47:22.752Z,78.50
2018-12-21T10:49:50.210Z,78.60
2018-12-21T10:52:17.752Z,79.00
2018-12-21T10:54:45.192Z,77.20
2018-12-21T10:57:12.679Z,76.50
2018-12-21T10:59:43.487Z,76.50
2018-12-21T11:02:09.893Z,75.90
2018-12-21T11:04:37.425Z,75.90
2018-12-21T11:07:04.985Z,76.10
2018-12-21T11:09:32.470Z,76.20
2018-12-21T11:12:00.019Z,75.60
2018-12-21T11:14:28.669Z,76.40
2018-12-21T11:16:56.137Z,75.80
2018-12-21T11:19:23.646Z,75.80
2018-12-21T11:21:51.128Z,75.70
2018-12-21T11:24:18.581Z,75.30
2018-12-21T11:26:46.077Z,75.10
2018-12-21T11:29:13.528Z,74.80
2018-12-21T11:31:43.111Z,75.00
2018-12-21T11:34:13.919Z,74.80
2018-12-21T11:36:44.526Z,74.50
2018-12-21T11:39:12.143Z,74.70
2018-12-21T11:41:39.834Z,74.60
2018-12-21T11:44:07.424Z,74.70
2018-12-21T11:46:36.187Z,74.20
2018-12-21T11:49:06.158Z,74.10
2018-12-21T11:51:35.620Z,74.00
2018-12-21T11:54:03.571Z,74.20
2018-12-21T11:56:38.606Z,74.30
2018-12-21T11:59:06.333Z,74.30
2018-12-21T12:01:34.554Z,74.60
2018-12-21T12:04:02.042Z,74.30
2018-12-21T12:06:29.647Z,74.30
2018-12-21T12:09:02.376Z,74.10
2018-12-21T12:11:26.609Z,73.90
2018-12-21T12:13:54.155Z,73.80
2018-12-21T12:16:21.724Z,73.90
2018-12-21T12:18:49.286Z,73.70
2018-12-21T12:21:16.854Z,73.60
2018-12-21T12:23:44.430Z,73.80
2018-12-21T12:26:12.037Z,73.90
2018-12-21T12:28:39.598Z,73.70
2018-12-21T12:31:07.111Z,73.70
2018-12-21T12:33:35.010Z,73.70
2018-12-21T12:36:02.541Z,73.80
2018-12-21T12:38:30.084Z,73.70
2018-12-21T12:41:06.337Z,73.60
2018-12-21T12:43:27.917Z,73.60
2018-12-21T12:45:55.421Z,73.90
2018-12-21T12:48:22.881Z,73.80
2018-12-21T12:50:50.497Z,73.70
2018-12-21T12:53:18.072Z,73.70
2018-12-21T12:55:45.536Z,73.60
2018-12-21T12:58:13.032Z,73.70
2018-12-21T13:00:40.492Z,73.60
2018-12-21T13:03:08.029Z,73.60
2018-12-21T13:05:35.487Z,73.60
2018-12-21T13:08:02.988Z,73.60
2018-12-21T13:10:30.510Z,73.50
2018-12-21T13:12:58.019Z,73.40
2018-12-21T13:15:25.465Z,73.40
2018-12-21T13:17:52.937Z,73.20
2018-12-21T13:20:20.539Z,73.90
2018-12-21T13:22:48.002Z,72.80
2018-12-21T13:25:15.514Z,72.90
2018-12-21T13:27:42.971Z,72.70
2018-12-21T13:30:11.902Z,72.40
2018-12-21T13:32:39.778Z,72.20
2018-12-21T13:35:07.258Z,72.30
2018-12-21T13:37:34.847Z,72.30
2018-12-21T13:40:02.437Z,72.00
2018-12-21T13:42:29.909Z,72.20
2018-12-21T13:44:57.550Z,71.90
2018-12-21T13:47:25.039Z,71.80
2018-12-21T13:49:52.566Z,71.60
2018-12-21T13:52:20.030Z,71.50
2018-12-21T13:54:47.536Z,71.50
2018-12-21T13:57:14.981Z,71.50
2018-12-21T13:59:42.794Z,71.30
2018-12-21T14:02:10.278Z,71.30
2018-12-21T14:04:37.780Z,71.30
2018-12-21T14:07:05.250Z,71.40
2018-12-21T14:09:32.879Z,71.30
2018-12-21T14:12:00.331Z,71.40
2018-12-21T14:14:27.822Z,71.50
2018-12-21T14:16:55.394Z,71.80
2018-12-21T14:19:22.883Z,71.50
2018-12-21T14:21:50.359Z,71.50
2018-12-21T14:24:17.886Z,71.40
2018-12-21T14:26:45.345Z,71.30
2018-12-21T14:29:12.889Z,71.10
2018-12-21T14:31:40.756Z,70.80
2018-12-21T14:34:08.247Z,71.30
2018-12-21T14:36:35.762Z,71.30
2018-12-21T14:39:05.779Z,71.20
2018-12-21T14:41:33.276Z,71.30
2018-12-21T14:44:01.087Z,71.50
2018-12-21T14:46:28.578Z,71.60
2018-12-21T14:48:56.084Z,71.50
2018-12-21T14:51:23.595Z,71.70
2018-12-21T14:53:51.179Z,71.60
2018-12-21T14:56:18.813Z,71.20
2018-12-21T14:58:46.736Z,71.40
2018-12-21T15:01:14.657Z,72.20
2018-12-21T15:03:44.048Z,71.40
2018-12-21T15:06:11.770Z,71.60
2018-12-21T15:08:39.230Z,71.30
2018-12-21T15:11:06.856Z,71.70
2018-12-21T15:13:34.417Z,71.70
2018-12-21T15:16:01.905Z,71.90
2018-12-21T15:18:29.362Z,71.70
2018-12-21T15:20:56.848Z,71.40
2018-12-21T15:23:26.271Z,71.40
2018-12-21T15:25:53.733Z,71.30
2018-12-21T15:28:21.195Z,71.10
2018-12-21T15:30:48.726Z,70.80
2018-12-21T15:33:16.286Z,71.00
2018-12-21T15:35:43.861Z,71.10
2018-12-21T15:38:11.403Z,71.10
2018-12-21T15:40:39.041Z,71.10
2018-12-21T15:43:06.667Z,71.10
2018-12-21T15:45:34.261Z,71.40
2018-12-21T15:48:01.712Z,71.70
2018-12-21T15:50:29.194Z,71.70
2018-12-21T15:52:56.660Z,71.50
2018-12-21T15:55:24.238Z,71.50
2018-12-21T15:57:52.541Z,71.40
2018-12-21T16:00:20.123Z,71.20
2018-12-21T16:02:47.740Z,71.40
2018-12-21T16:05:15.254Z,71.20
2018-12-21T16:07:42.757Z,71.40
2018-12-21T16:10:10.362Z,71.80
2018-12-21T16:12:37.844Z,71.60
2018-12-21T16:15:05.534Z,71.30
2018-12-21T16:17:33.009Z,71.60
2018-12-21T16:20:00.474Z,71.60
2018-12-21T16:22:27.947Z,71.40
2018-12-21T16:24:55.418Z,71.50
2018-12-21T16:27:22.912Z,71.40
2018-12-21T16:29:50.884Z,71.20
2018-12-21T16:32:20.023Z,71.10
2018-12-21T16:34:47.572Z,71.20
2018-12-21T16:37:15.058Z,71.80
2018-12-21T16:39:42.514Z,71.30
2018-12-21T16:42:10.042Z,71.00
2018-12-21T16:44:37.619Z,71.00
2018-12-21T16:47:05.113Z,70.80
2018-12-21T16:49:32.593Z,70.80
2018-12-21T16:52:00.082Z,70.60
2018-12-21T16:54:27.538Z,70.60
2018-12-21T16:56:55.062Z,70.40
2018-12-21T16:59:22.613Z,70.40
2018-12-21T17:01:50.109Z,70.60
2018-12-21T17:04:17.587Z,70.50
2018-12-21T17:06:45.188Z,70.50
2018-12-21T17:09:12.669Z,70.40
2018-12-21T17:11:40.588Z,70.40
2018-12-21T17:14:08.076Z,70.30
2018-12-21T17:16:35.573Z,70.20
2018-12-21T17:19:04.068Z,70.20
2018-12-21T17:21:31.693Z,70.20
2018-12-21T17:23:59.842Z,70.10
2018-12-21T17:26:27.289Z,70.20
2018-12-21T17:28:54.829Z,70.10
2018-12-21T17:31:22.306Z,70.30
2018-12-21T17:33:49.806Z,70.10
2018-12-21T17:36:17.295Z,69.90
2018-12-21T17:38:44.769Z,69.80
2018-12-21T17:41:12.235Z,69.70
2018-12-21T17:43:39.782Z,69.70
2018-12-21T17:46:07.287Z,69.80
2018-12-21T17:48:34.829Z,69.20
2018-12-21T17:51:02.285Z,69.40
2018-12-21T17:53:29.761Z,69.40
2018-12-21T17:55:57.294Z,69.40
2018-12-21T17:58:24.864Z,69.60
2018-12-21T18:00:52.327Z,69.60
2018-12-21T18:03:22.187Z,70.10
2018-12-21T18:05:49.719Z,69.20
2018-12-21T18:08:19.087Z,69.10
2018-12-21T18:13:23.177Z,69.20
2018-12-21T18:15:52.538Z,69.00
2018-12-21T18:18:26.396Z,69.00
2018-12-21T18:20:58.411Z,69.50
2018-12-21T18:23:29.354Z,68.80
2018-12-21T18:26:00.020Z,69.00
2018-12-21T18:28:28.805Z,68.90
2018-12-21T18:31:03.072Z,68.70
2018-12-21T18:33:33.194Z,68.80
2018-12-21T18:36:07.195Z,68.90
2018-12-21T18:38:34.901Z,68.90
2018-12-21T18:41:02.391Z,68.90
2018-12-21T18:43:29.950Z,68.90
2018-12-21T18:45:57.481Z,68.80
2018-12-21T18:48:24.965Z,68.80
2018-12-21T18:50:52.428Z,68.80
2018-12-21T18:53:19.942Z,68.90
2018-12-21T18:55:48.109Z,68.80
2018-12-21T18:58:15.622Z,68.70
2018-12-21T19:00:43.105Z,68.80
2018-12-21T19:03:10.724Z,68.80
2018-12-21T19:05:38.517Z,68.90
2018-12-21T19:08:06.061Z,69.00
2018-12-21T19:10:33.562Z,68.60
2018-12-21T19:13:04.079Z,68.60
2018-12-21T19:15:31.774Z,68.60
2018-12-21T19:17:59.295Z,68.30
2018-12-21T19:20:28.439Z,68.20
2018-12-21T19:22:56.747Z,68.10
2018-12-21T19:25:24.578Z,68.00
2018-12-21T19:27:52.873Z,67.90
2018-12-21T19:30:25.612Z,67.80
2018-12-21T19:32:56.600Z,67.90
2018-12-21T19:38:10.960Z,68.10
2018-12-21T19:40:40.687Z,68.10
2018-12-21T19:43:08.154Z,68.20
2018-12-21T19:45:37.374Z,68.10
2018-12-21T19:48:04.994Z,68.00
2018-12-21T19:50:32.563Z,68.00
2018-12-21T19:53:00.079Z,68.00
2018-12-21T19:55:38.005Z,68.00
2018-12-21T19:58:05.469Z,67.90
2018-12-21T20:00:39.635Z,67.90
2018-12-21T20:03:07.198Z,67.90
2018-12-21T20:08:10.101Z,68.10
2018-12-21T20:10:37.585Z,68.00
2018-12-21T20:13:09.144Z,67.90
2018-12-21T20:15:46.278Z,67.90
2018-12-21T20:18:17.819Z,67.70
2018-12-21T20:20:45.320Z,67.80
2018-12-21T20:23:14.283Z,67.50
2018-12-21T20:25:41.764Z,67.60
2018-12-21T20:28:09.234Z,67.50
2018-12-21T20:30:36.738Z,67.30
2018-12-21T20:33:04.201Z,67.50
2018-12-21T20:35:31.687Z,67.40
2018-12-21T20:37:59.681Z,67.60
2018-12-21T20:40:27.286Z,67.30
2018-12-21T20:42:54.742Z,67.30
2018-12-21T20:45:22.235Z,67.40
2018-12-21T20:47:49.704Z,67.40
2018-12-21T20:50:17.241Z,67.50
2018-12-21T20:52:47.625Z,67.20
2018-12-21T20:55:15.181Z,66.90
2018-12-21T20:57:44.109Z,66.90
2018-12-21T21:00:14.664Z,67.00
2018-12-21T21:02:42.192Z,66.90
2018-12-21T21:05:14.960Z,66.90
2018-12-21T21:07:42.556Z,67.00
2018-12-21T21:10:11.733Z,66.90
2018-12-21T21:12:40.194Z,66.90
2018-12-21T21:15:10.626Z,67.00
2018-12-21T21:17:38.297Z,67.60
2018-12-21T21:20:11.692Z,67.00
2018-12-21T21:22:39.169Z,67.00
2018-12-21T21:25:07.049Z,66.70
2018-12-21T21:27:34.629Z,66.70
2018-12-21T21:30:02.407Z,66.50
2018-12-21T21:32:29.904Z,66.40
2018-12-21T21:34:57.410Z,66.60
2018-12-21T21:37:24.912Z,66.40
2018-12-21T21:39:52.401Z,66.40
2018-12-21T21:42:19.883Z,66.40
2018-12-21T21:44:47.348Z,66.40
2018-12-21T21:47:14.832Z,66.20
2018-12-21T21:49:42.293Z,66.20
2018-12-21T21:52:09.812Z,66.30
2018-12-21T21:54:37.281Z,66.20
2018-12-21T21:57:04.786Z,66.20
2018-12-21T21:59:32.362Z,66.20
2018-12-21T22:01:59.904Z,66.20
2018-12-21T22:04:27.452Z,66.40
2018-12-21T22:06:55.045Z,66.30
2018-12-21T22:09:22.925Z,66.30
2018-12-21T22:11:50.405Z,66.30
2018-12-21T22:14:17.916Z,66.20
2018-12-21T22:16:45.396Z,66.20
2018-12-21T22:19:12.856Z,66.20
2018-12-21T22:21:40.345Z,66.40
2018-12-21T22:24:07.832Z,66.30
2018-12-21T22:26:35.371Z,66.30
2018-12-21T22:29:03.041Z,66.40
2018-12-21T22:31:30.506Z,66.40
2018-12-21T22:33:58.088Z,66.50
2018-12-21T22:36:25.656Z,66.30
2018-12-21T22:38:53.336Z,66.40
2018-12-21T22:41:20.795Z,66.30
2018-12-21T22:43:48.275Z,66.10
2018-12-21T22:46:15.738Z,66.70
2018-12-21T22:48:43.210Z,66.00
2018-12-21T22:51:10.702Z,66.10
2018-12-21T22:53:38.215Z,65.90
2018-12-21T22:56:05.702Z,65.70
2018-12-21T22:58:33.243Z,65.50
2018-12-21T23:01:00.951Z,65.20
2018-12-21T23:03:28.424Z,65.20
2018-12-21T23:05:55.902Z,65.20
2018-12-21T23:08:23.385Z,65.30
2018-12-21T23:10:50.950Z,65.40
2018-12-21T23:13:18.688Z,65.30
2018-12-21T23:15:46.179Z,65.30
2018-12-21T23:18:13.665Z,65.30
2018-12-21T23:20:41.120Z,65.50
2018-12-21T23:23:08.602Z,65.70
2018-12-21T23:25:36.079Z,65.80
2018-12-21T23:28:05.239Z,65.50
2018-12-21T23:30:33.092Z,66.00
2018-12-21T23:33:00.686Z,66.40
2018-12-21T23:35:28.160Z,66.50
2018-12-21T23:37:55.706Z,66.50
2018-12-21T23:40:23.160Z,66.50
2018-12-21T23:42:50.723Z,66.60
2018-12-21T23:45:18.399Z,65.80
2018-12-21T23:47:45.880Z,66.70
2018-12-21T23:50:13.661Z,66.70
2018-12-21T23:52:42.169Z,66.60
2018-12-21T23:55:09.718Z,66.70
2018-12-21T23:57:37.294Z,66.50
